Time;durP1;ratioP1;P1;durP2;ratioP2;P2;SDS_P1;SDS_P2;PMS_P1;PMS_P2;Temp;Humidity;BMP_temperature;BMP_pressure;BME280_temperature;BME280_humidity;BME280_pressure;Samples;Min_cycle;Max_cycle;Signal;HPM_P1;HPM_P2
2022/10/24 00:01:37;;;;;;;34.00;19.30;;;;;;;11.66;71.14;99152.39;103086;1304;99014;-73
2022/10/24 00:04:06;;;;;;;32.30;20.00;;;;;;;11.68;71.08;99147.96;103052;1296;107173;-72
2022/10/24 00:06:34;;;;;;;36.10;21.20;;;;;;;11.69;71.29;99148.42;103050;1302;95126;-74
2022/10/24 00:09:02;;;;;;;36.40;21.70;;;;;;;11.71;71.33;99145.64;103052;1298;95200;-73
2022/10/24 00:11:30;;;;;;;33.30;19.90;;;;;;;11.73;71.20;99141.02;103061;1303;111096;-74
2022/10/24 00:13:59;;;;;;;35.50;21.40;;;;;;;11.75;71.41;99136.79;103039;1304;97865;-73
2022/10/24 00:16:27;;;;;;;33.30;20.20;;;;;;;11.78;71.93;99136.06;103040;1298;107387;-73
2022/10/24 00:18:55;;;;;;;33.40;19.40;;;;;;;11.80;71.76;99134.48;103078;1305;98004;-73
2022/10/24 00:21:23;;;;;;;35.70;20.60;;;;;;;11.82;71.79;99133.38;103061;1304;97984;-74
2022/10/24 00:23:51;;;;;;;35.20;19.60;;;;;;;11.86;72.05;99131.86;103109;1305;110861;-73
2022/10/24 00:26:19;;;;;;;34.20;19.00;;;;;;;11.87;71.74;99131.41;103078;1298;95214;-73
2022/10/24 00:28:47;;;;;;;33.20;19.70;;;;;;;11.88;72.39;99133.98;103128;1296;107183;-73
2022/10/24 00:31:18;;;;;;;34.60;18.40;;;;;;;11.90;71.81;99124.61;103051;1298;97888;-74
2022/10/24 00:33:46;;;;;;;34.70;20.60;;;;;;;11.92;72.14;99117.70;103113;1296;97915;-73
2022/10/24 00:36:18;;;;;;;31.00;18.30;;;;;;;11.95;72.12;99114.15;103093;1297;111124;-72
2022/10/24 00:38:48;;;;;;;30.70;18.50;;;;;;;11.98;72.45;99110.71;103060;1305;97819;-72
2022/10/24 00:41:32;;;;;;;30.10;16.60;;;;;;;12.01;72.65;99105.15;103063;1300;108475;-73
2022/10/24 00:44:21;;;;;;;31.90;17.40;;;;;;;12.03;72.27;99108.38;103094;1303;97982;-74
2022/10/24 00:46:52;;;;;;;28.90;16.30;;;;;;;12.04;72.80;99110.75;103069;1298;97879;-74
2022/10/24 00:49:42;;;;;;;27.90;16.00;;;;;;;12.05;72.33;99114.20;103024;1296;111221;-73
2022/10/24 00:52:14;;;;;;;27.80;15.80;;;;;;;12.07;72.66;99113.38;103060;1296;95183;-73
2022/10/24 00:54:42;;;;;;;28.70;16.00;;;;;;;12.08;72.32;99115.83;102996;1296;107535;-75
2022/10/24 00:57:37;;;;;;;28.10;14.90;;;;;;;12.08;72.39;99119.20;103095;1304;95371;-74
2022/10/24 01:00:14;;;;;;;28.50;15.80;;;;;;;12.09;72.27;99116.11;103047;1304;97870;-73
2022/10/24 01:02:43;;;;;;;31.00;16.00;;;;;;;12.09;72.34;99113.45;103056;1304;111173;-74
2022/10/24 01:05:13;;;;;;;28.30;14.80;;;;;;;12.09;72.77;99109.48;103008;1303;95184;-74
2022/10/24 01:07:52;;;;;;;29.30;15.40;;;;;;;12.09;72.58;99105.81;103042;1305;107483;-73
2022/10/24 01:10:48;;;;;;;28.80;16.00;;;;;;;12.08;72.84;99101.22;104152;1303;95474;-75
2022/10/24 01:13:24;;;;;;;27.70;14.30;;;;;;;12.09;72.75;99101.36;103088;1304;97910;-74
2022/10/24 01:16:03;;;;;;;28.40;15.50;;;;;;;12.09;72.92;99095.13;103179;1304;110736;-73
2022/10/24 01:18:42;;;;;;;28.40;16.40;;;;;;;12.09;72.80;99094.09;103150;1298;98418;-74
2022/10/24 01:21:28;;;;;;;28.00;15.90;;;;;;;12.09;73.11;99097.09;103165;1303;107179;-74
2022/10/24 01:24:19;;;;;;;27.90;15.40;;;;;;;12.10;73.07;99100.04;103187;1296;98337;-74
2022/10/24 01:27:29;;;;;;;29.30;16.20;;;;;;;12.09;73.28;99097.94;103174;1296;97895;-74
2022/10/24 01:30:04;;;;;;;25.50;14.10;;;;;;;12.09;73.35;99098.00;103169;1303;110992;-74
2022/10/24 01:32:41;;;;;;;26.40;14.80;;;;;;;12.10;73.24;99099.30;103206;1303;97327;-73
2022/10/24 01:35:45;;;;;;;26.50;15.20;;;;;;;12.11;73.23;99104.92;103112;1303;107181;-72
2022/10/24 01:38:36;;;;;;;;;;;;;;;12.10;73.17;99099.50;103157;1305;97890;-72
2022/10/24 01:41:09;;;;;;;27.90;15.90;;;;;;;12.08;73.42;99095.54;103058;1290;97900;-72
2022/10/24 01:43:44;;;;;;;24.50;14.40;;;;;;;12.08;73.10;99091.45;103203;1290;110141;-72
2022/10/24 01:46:20;;;;;;;26.40;14.40;;;;;;;12.10;73.33;99094.55;103219;1303;97896;-72
2022/10/24 01:48:56;;;;;;;27.50;15.60;;;;;;;12.10;73.29;99095.45;103176;1303;107235;-72
2022/10/24 01:51:29;;;;;;;28.20;16.10;;;;;;;12.11;73.32;99097.49;103157;1303;97950;-72
2022/10/24 01:53:58;;;;;;;27.80;15.90;;;;;;;12.12;73.50;99089.79;103140;1304;97879;-73
2022/10/24 01:56:27;;;;;;;28.40;15.40;;;;;;;12.13;73.45;99090.38;103029;1304;111157;-72
2022/10/24 01:59:41;;;;;;;29.50;16.50;;;;;;;12.13;73.49;99095.31;102931;1305;97983;-72
2022/10/24 02:02:18;;;;;;;27.80;15.30;;;;;;;12.15;73.43;99089.86;102620;1304;107652;-72
2022/10/24 02:05:06;;;;;;;27.90;16.20;;;;;;;12.16;73.51;99091.19;103058;1304;97889;-73
2022/10/24 02:07:40;;;;;;;29.30;15.80;;;;;;;12.17;73.39;99098.41;103029;1297;97982;-72
2022/10/24 02:10:15;;;;;;;28.00;16.00;;;;;;;12.18;73.61;99089.40;103069;1305;111186;-72
2022/10/24 02:12:48;;;;;;;31.00;17.00;;;;;;;12.19;73.58;99075.67;103108;1303;97887;-70
2022/10/24 02:15:30;;;;;;;29.20;17.60;;;;;;;12.20;73.76;99072.89;103060;1297;107429;-73
2022/10/24 02:18:00;;;;;;;29.70;17.20;;;;;;;12.21;73.80;99066.81;103081;1303;97996;-72
2022/10/24 02:20:36;;;;;;;30.30;18.30;;;;;;;12.22;73.94;99060.89;103089;1303;96688;-73
2022/10/24 02:23:24;;;;;;;30.10;17.40;;;;;;;12.23;73.86;99059.55;102959;1299;111026;-72
2022/10/24 02:25:57;;;;;;;28.70;15.60;;;;;;;12.23;73.89;99055.65;103097;1306;96970;-72
2022/10/24 02:28:33;;;;;;;29.30;17.40;;;;;;;12.22;73.68;99053.04;103135;1297;107259;-72
2022/10/24 02:31:12;;;;;;;27.20;16.90;;;;;;;12.21;73.92;99060.02;103099;1297;97860;-72
2022/10/24 02:33:41;;;;;;;33.30;17.40;;;;;;;12.22;74.18;99059.27;103151;1309;97910;-73
2022/10/24 02:36:16;;;;;;;29.30;17.30;;;;;;;12.23;74.06;99058.09;103122;1303;111124;-73
2022/10/24 02:38:47;;;;;;;30.00;16.00;;;;;;;12.25;73.93;99061.39;103091;1304;95832;-72
2022/10/24 02:41:25;;;;;;;28.40;17.10;;;;;;;12.26;74.16;99059.86;103052;1288;107212;-72
2022/10/24 02:43:56;;;;;;;30.90;17.20;;;;;;;12.28;73.97;99058.65;103011;1298;95913;-72
2022/10/24 02:46:25;;;;;;;30.80;16.00;;;;;;;12.29;74.39;99057.60;103125;1303;98051;-72
2022/10/24 02:48:59;;;;;;;30.00;16.90;;;;;;;12.30;74.35;99057.72;103168;1303;111063;-72
2022/10/24 02:51:31;;;;;;;29.90;16.70;;;;;;;12.31;74.13;99061.40;103094;1303;97857;-71
2022/10/24 02:54:00;;;;;;;28.20;16.20;;;;;;;12.31;74.21;99060.81;103108;1304;107309;-72
2022/10/24 02:56:30;;;;;;;26.70;15.40;;;;;;;12.32;74.00;99065.20;103158;1297;97993;-73
2022/10/24 02:58:58;;;;;;;28.40;15.40;;;;;;;12.33;74.07;99073.66;103123;1297;95156;-72
2022/10/24 03:01:26;;;;;;;29.60;15.90;;;;;;;12.34;73.93;99072.90;103143;1297;110742;-71
2022/10/24 03:03:54;;;;;;;28.40;14.90;;;;;;;12.35;74.00;99067.48;103076;1296;96623;-72
2022/10/24 03:06:23;;;;;;;27.60;15.50;;;;;;;12.36;74.09;99065.09;103059;1303;107443;-72
2022/10/24 03:08:51;;;;;;;25.90;14.30;;;;;;;12.38;74.02;99063.55;103162;1304;97911;-72
2022/10/24 03:11:19;;;;;;;29.20;16.00;;;;;;;12.38;73.92;99065.81;103144;1298;97913;-73
2022/10/24 03:13:46;;;;;;;28.70;16.10;;;;;;;12.39;74.06;99063.98;103165;1301;110793;-74
2022/10/24 03:16:15;;;;;;;28.60;14.10;;;;;;;12.40;73.97;99060.55;103106;1296;97911;-73
2022/10/24 03:18:43;;;;;;;30.30;15.70;;;;;;;12.39;74.19;99052.23;103055;1297;107525;-71
2022/10/24 03:21:11;;;;;;;27.20;15.60;;;;;;;12.39;74.19;99059.53;103090;1298;95310;-71
2022/10/24 03:23:38;;;;;;;26.00;14.60;;;;;;;12.39;74.26;99057.63;103178;1296;95258;-72
2022/10/24 03:26:08;;;;;;;24.70;14.50;;;;;;;12.37;74.20;99051.83;103147;1300;111159;-71
2022/10/24 03:28:37;;;;;;;25.80;14.00;;;;;;;12.37;74.03;99049.16;103128;1304;97895;-72
2022/10/24 03:31:06;;;;;;;26.20;14.30;;;;;;;12.38;74.46;99043.98;103154;1298;107486;-73
2022/10/24 03:33:34;;;;;;;26.20;14.40;;;;;;;12.38;74.33;99041.64;103048;1300;98008;-73
2022/10/24 03:36:04;;;;;;;25.80;14.20;;;;;;;12.38;74.58;99038.07;103120;1300;98018;-74
2022/10/24 03:38:32;;;;;;;27.00;14.90;;;;;;;12.38;74.28;99039.48;103070;1299;111190;-72
2022/10/24 03:41:00;;;;;;;25.10;13.00;;;;;;;12.39;74.49;99041.05;103193;1281;95253;-72
2022/10/24 03:43:28;;;;;;;25.80;13.50;;;;;;;12.39;74.39;99030.56;103102;1296;107413;-73
2022/10/24 03:45:56;;;;;;;25.40;13.00;;;;;;;12.39;74.44;99030.89;103134;1305;97904;-72
2022/10/24 03:48:25;;;;;;;24.50;13.70;;;;;;;12.39;74.50;99033.05;103125;1298;97860;-72
2022/10/24 03:50:53;;;;;;;26.00;13.90;;;;;;;12.39;74.38;99025.71;103068;1296;109435;-71
2022/10/24 03:53:21;;;;;;;24.30;13.60;;;;;;;12.40;74.63;99019.42;103123;1290;97853;-73
2022/10/24 03:55:49;;;;;;;24.40;13.10;;;;;;;12.41;74.84;99017.75;103105;1304;107950;-72
2022/10/24 03:58:17;;;;;;;24.30;12.10;;;;;;;12.42;74.61;99021.25;103139;1297;99072;-73
2022/10/24 04:00:45;;;;;;;24.50;13.50;;;;;;;12.42;74.54;99024.27;103109;1297;97886;-73
2022/10/24 04:03:13;;;;;;;25.40;14.00;;;;;;;12.41;74.77;99015.06;103128;1304;111135;-72
2022/10/24 04:05:41;;;;;;;23.20;12.10;;;;;;;12.42;74.61;99013.06;103146;1296;97971;-73
2022/10/24 04:08:08;;;;;;;22.70;12.40;;;;;;;12.42;74.76;99014.09;103094;1301;107529;-72
2022/10/24 04:10:36;;;;;;;24.00;12.20;;;;;;;12.42;74.76;99018.23;103007;1297;97912;-74
2022/10/24 04:13:06;;;;;;;22.60;12.30;;;;;;;12.41;74.63;99011.70;103038;1300;97972;-74
2022/10/24 04:15:34;;;;;;;24.60;11.50;;;;;;;12.42;74.68;99008.61;103036;1296;111145;-74
2022/10/24 04:18:02;;;;;;;24.80;12.50;;;;;;;12.41;74.66;99007.23;103055;1296;96007;-72
2022/10/24 04:20:30;;;;;;;24.40;12.00;;;;;;;12.41;74.73;99006.34;103030;1289;107387;-74
2022/10/24 04:22:58;;;;;;;23.70;12.10;;;;;;;12.41;74.90;99011.54;102909;1296;95215;-71
2022/10/24 04:25:31;;;;;;;23.80;12.10;;;;;;;12.42;74.88;99006.49;103045;1300;98018;-72
2022/10/24 04:27:59;;;;;;;22.70;11.10;;;;;;;12.42;74.84;99008.95;103083;1296;111135;-73
2022/10/24 04:30:28;;;;;;;23.30;12.20;;;;;;;12.42;74.92;99007.48;103143;1294;97874;-73
2022/10/24 04:32:56;;;;;;;23.20;11.30;;;;;;;12.43;75.15;99007.60;103134;1305;106771;-71
2022/10/24 04:35:26;;;;;;;22.40;11.40;;;;;;;12.43;75.31;99001.70;103055;1311;97873;-74
2022/10/24 04:37:53;;;;;;;24.00;13.10;;;;;;;12.45;75.22;98991.13;103062;1296;95903;-73
2022/10/24 04:40:21;;;;;;;24.80;13.20;;;;;;;12.45;75.13;98989.29;103024;1298;111147;-71
2022/10/24 04:42:49;;;;;;;23.50;11.90;;;;;;;12.47;75.48;98992.92;103141;1298;97977;-74
2022/10/24 04:45:17;;;;;;;23.10;12.60;;;;;;;12.47;75.28;98990.90;102368;1304;989788;-75
2022/10/24 04:47:46;;;;;;;21.90;11.80;;;;;;;12.47;75.33;98989.69;102964;1299;97987;-74
2022/10/24 04:50:15;;;;;;;28.50;12.00;;;;;;;12.47;75.11;98992.70;103049;1298;97972;-76
2022/10/24 04:52:42;;;;;;;24.80;12.50;;;;;;;12.47;75.37;98994.15;103015;1299;110857;-73
2022/10/24 04:55:10;;;;;;;24.70;13.30;;;;;;;12.46;75.57;98985.16;103073;1297;97951;-72
2022/10/24 04:57:38;;;;;;;25.70;13.60;;;;;;;12.45;75.14;98987.51;103058;1293;107460;-73
2022/10/24 05:00:07;;;;;;;24.20;13.20;;;;;;;12.45;75.30;98980.98;103117;1303;98369;-75
2022/10/24 05:02:35;;;;;;;26.80;14.00;;;;;;;12.45;75.30;98978.13;103112;1304;97947;-73
2022/10/24 05:05:04;;;;;;;27.70;13.20;;;;;;;12.45;75.31;98983.27;103133;1304;111055;-73
2022/10/24 05:07:32;;;;;;;24.60;13.90;;;;;;;12.46;75.19;98989.27;103138;1297;96504;-71
2022/10/24 05:10:00;;;;;;;25.20;13.20;;;;;;;12.46;75.13;98989.94;103139;1298;107568;-74
2022/10/24 05:12:28;;;;;;;23.20;12.70;;;;;;;12.46;75.20;98986.40;103215;1298;97990;-74
2022/10/24 05:14:56;;;;;;;26.10;13.30;;;;;;;12.46;75.27;98987.43;103123;1300;99057;-73
2022/10/24 05:17:25;;;;;;;26.60;13.80;;;;;;;12.46;75.23;98992.92;103202;1303;110712;-74
2022/10/24 05:19:53;;;;;;;24.40;13.40;;;;;;;12.46;75.15;98988.87;103044;1304;96056;-73
2022/10/24 05:22:21;;;;;;;24.50;13.50;;;;;;;12.47;75.33;98989.30;103035;1297;108329;-72
2022/10/24 05:24:50;;;;;;;24.50;13.10;;;;;;;12.47;75.26;98990.34;103036;1288;96967;-72
2022/10/24 05:27:23;;;;;;;26.70;14.00;;;;;;;12.48;75.37;98986.23;103077;1297;97852;-72
2022/10/24 05:29:52;;;;;;;25.30;13.90;;;;;;;12.48;75.30;98983.69;102992;1297;111016;-72
2022/10/24 05:32:23;;;;;;;26.00;13.80;;;;;;;12.49;75.21;98983.45;102955;1280;95899;-74
2022/10/24 05:34:51;;;;;;;26.10;14.20;;;;;;;12.50;75.25;98985.03;102826;1297;107536;-73
2022/10/24 05:37:18;;;;;;;25.80;13.40;;;;;;;12.51;75.46;98988.25;102838;1297;95215;-71
2022/10/24 05:39:46;;;;;;;26.20;13.10;;;;;;;12.53;75.30;98978.94;103043;1303;97959;-72
2022/10/24 05:42:15;;;;;;;25.00;14.00;;;;;;;12.53;75.21;98978.18;102996;1295;111717;-72
2022/10/24 05:44:43;;;;;;;27.00;13.70;;;;;;;12.54;75.32;98987.37;102980;1303;97985;-72
2022/10/24 05:47:11;;;;;;;28.40;14.30;;;;;;;12.55;75.37;98996.88;102963;1297;107556;-73
2022/10/24 05:49:39;;;;;;;23.00;12.50;;;;;;;12.56;75.32;99000.54;102994;1296;97878;-73
2022/10/24 05:52:07;;;;;;;27.10;14.40;;;;;;;12.57;75.31;98994.20;102966;1297;97966;-74
2022/10/24 05:54:36;;;;;;;26.30;14.20;;;;;;;12.58;75.32;98990.23;103004;1297;110747;-73
2022/10/24 05:57:25;;;;;;;24.50;13.70;;;;;;;12.59;75.39;98990.34;103072;1297;95586;-72
2022/10/24 05:59:53;;;;;;;25.40;14.10;;;;;;;12.60;75.34;98990.58;103025;1296;107332;-74
2022/10/24 06:02:22;;;;;;;29.80;14.40;;;;;;;12.62;75.43;98993.29;103003;1297;98587;-74
2022/10/24 06:04:53;;;;;;;25.10;13.60;;;;;;;12.64;75.46;98991.44;103139;1304;97905;-74
2022/10/24 06:07:24;;;;;;;24.60;14.00;;;;;;;12.65;75.32;98991.17;103101;1296;111250;-74
2022/10/24 06:09:54;;;;;;;24.80;13.00;;;;;;;12.69;75.40;98995.58;103106;1290;98026;-72
2022/10/24 06:12:22;;;;;;;23.30;12.70;;;;;;;12.71;75.29;98998.08;103080;1296;107397;-72
2022/10/24 06:14:49;;;;;;;24.70;12.60;;;;;;;12.72;75.39;99001.86;103112;1296;97923;-73
2022/10/24 06:17:17;;;;;;;25.00;13.10;;;;;;;12.75;75.28;99013.38;103180;1289;99067;-71
2022/10/24 06:19:45;;;;;;;24.00;13.20;;;;;;;12.76;75.25;99010.08;102920;1296;111353;-75
2022/10/24 06:22:12;;;;;;;25.10;12.90;;;;;;;12.79;75.27;99006.45;103094;1296;97824;-73
2022/10/24 06:24:40;;;;;;;22.70;12.30;;;;;;;12.83;75.24;99008.45;103083;1303;106262;-73
2022/10/24 06:27:09;;;;;;;23.50;12.70;;;;;;;12.86;75.10;99009.45;102984;1298;95245;-73
2022/10/24 06:29:40;;;;;;;23.80;12.70;;;;;;;12.88;75.22;99011.58;103037;1297;99402;-74
2022/10/24 06:32:07;;;;;;;24.80;13.00;;;;;;;12.90;75.12;99004.86;103021;1297;111713;-72
2022/10/24 06:34:35;;;;;;;24.00;12.50;;;;;;;12.92;75.09;98998.09;103107;1296;97950;-73
2022/10/24 06:37:03;;;;;;;23.50;12.40;;;;;;;12.94;75.15;98983.86;103052;1296;107174;-73
2022/10/24 06:39:31;;;;;;;24.80;13.80;;;;;;;12.94;75.06;98976.55;102932;1298;98030;-75
2022/10/24 06:42:00;;;;;;;24.50;12.50;;;;;;;12.93;75.00;98966.30;103094;1290;97897;-76
2022/10/24 06:44:28;;;;;;;27.10;13.50;;;;;;;12.93;75.18;98960.79;103081;1297;111113;-71
2022/10/24 06:46:56;;;;;;;25.10;13.30;;;;;;;12.93;75.15;98953.48;102979;1299;97978;-71
2022/10/24 06:49:25;;;;;;;24.70;12.20;;;;;;;12.93;75.14;98959.39;102985;1296;107588;-71
2022/10/24 06:51:53;;;;;;;25.90;13.00;;;;;;;12.94;75.03;98966.61;103020;1297;98000;-72
2022/10/24 06:54:20;;;;;;;23.70;11.50;;;;;;;12.95;75.13;98960.65;103081;1296;97988;-73
2022/10/24 06:56:53;;;;;;;24.10;12.80;;;;;;;12.98;75.07;98960.82;103011;1290;112641;-72
2022/10/24 06:59:21;;;;;;;22.50;12.10;;;;;;;12.99;75.10;98966.16;103046;1297;95933;-76
2022/10/24 07:01:49;;;;;;;22.10;11.70;;;;;;;13.02;75.06;98965.09;102979;1293;107496;-77
2022/10/24 07:04:18;;;;;;;21.60;11.10;;;;;;;13.05;75.01;98956.23;103034;1300;96594;-75
2022/10/24 07:06:46;;;;;;;25.00;11.80;;;;;;;13.09;75.05;98952.19;102955;1307;97851;-75
2022/10/24 07:09:14;;;;;;;21.80;11.10;;;;;;;13.13;75.00;98958.08;103088;1298;111175;-78
2022/10/24 07:11:44;;;;;;;23.50;10.60;;;;;;;13.20;74.96;98970.64;103178;1296;95581;-78
2022/10/24 07:14:12;;;;;;;24.20;11.10;;;;;;;13.29;74.97;98974.21;103080;1303;107505;-75
2022/10/24 07:16:40;;;;;;;20.40;10.40;;;;;;;13.36;74.90;98976.60;103076;1296;98035;-76
2022/10/24 07:19:09;;;;;;;21.50;10.30;;;;;;;13.41;74.94;98978.35;103094;1297;97896;-75
2022/10/24 07:21:38;;;;;;;22.10;11.50;;;;;;;13.46;74.91;98984.89;103055;1304;111268;-76
2022/10/24 07:24:06;;;;;;;22.30;10.50;;;;;;;13.54;74.85;98992.95;103009;1290;95608;-78
2022/10/24 07:26:34;;;;;;;21.30;10.80;;;;;;;13.65;74.92;99003.37;103075;1297;107408;-78
2022/10/24 07:29:05;;;;;;;23.20;10.50;;;;;;;13.80;74.99;99008.19;103085;1297;97892;-76
2022/10/24 07:31:35;;;;;;;21.70;10.80;;;;;;;13.94;74.82;99013.52;103070;1297;97909;-75
2022/10/24 07:34:08;;;;;;;20.20;10.10;;;;;;;14.07;74.79;99014.90;103065;1297;111045;-76
2022/10/24 07:36:36;;;;;;;21.10;11.10;;;;;;;14.19;74.84;99011.14;103137;1298;97841;-75
2022/10/24 07:39:12;;;;;;;20.50;9.90;;;;;;;14.29;74.74;98997.11;103066;1298;107524;-73
2022/10/24 07:41:41;;;;;;;20.70;10.10;;;;;;;14.36;74.59;98994.85;103058;1304;97896;-77
2022/10/24 07:44:10;;;;;;;19.70;10.20;;;;;;;14.39;74.20;98995.30;103008;1300;95251;-74
2022/10/24 07:46:42;;;;;;;20.30;9.80;;;;;;;14.40;74.36;98984.55;103012;1297;111856;-76
2022/10/24 07:49:11;;;;;;;21.70;10.60;;;;;;;14.42;74.46;98986.48;103040;1290;95199;-76
2022/10/24 07:51:41;;;;;;;22.40;11.40;;;;;;;14.43;74.35;98991.07;102957;1298;107436;-73
2022/10/24 07:54:09;;;;;;;22.70;10.00;;;;;;;14.43;74.36;98993.33;102970;1298;97979;-75
2022/10/24 07:56:37;;;;;;;24.20;10.40;;;;;;;14.45;74.45;99003.36;102876;1304;97888;-74
2022/10/24 07:59:07;;;;;;;24.50;10.50;;;;;;;14.47;74.21;99008.54;103045;1298;111794;-75
2022/10/24 08:01:41;;;;;;;22.20;11.10;;;;;;;14.48;74.26;99017.07;103069;1290;95194;-74
2022/10/24 08:04:12;;;;;;;21.60;10.40;;;;;;;14.48;74.31;99020.21;103000;1297;107518;-74
2022/10/24 08:06:41;;;;;;;19.60;8.90;;;;;;;14.52;74.24;99011.48;103044;1297;97887;-72
2022/10/24 08:09:10;;;;;;;19.70;9.20;;;;;;;14.58;74.17;99015.23;102996;1297;98823;-74
2022/10/24 08:11:39;;;;;;;24.30;9.30;;;;;;;14.65;74.15;99015.49;103105;1297;111531;-74
2022/10/24 08:14:07;;;;;;;19.90;9.30;;;;;;;14.71;74.10;99016.59;103051;1298;97797;-73
2022/10/24 08:16:37;;;;;;;21.00;9.20;;;;;;;14.76;73.93;99021.14;103036;1298;107376;-73
2022/10/24 08:19:05;;;;;;;20.00;9.10;;;;;;;14.79;73.96;99024.23;103053;1298;97939;-74
2022/10/24 08:21:35;;;;;;;20.30;9.40;;;;;;;14.81;73.90;99020.10;103017;1291;97946;-73
2022/10/24 08:24:03;;;;;;;19.00;9.30;;;;;;;14.82;73.84;99022.16;103069;1293;110994;-73
2022/10/24 08:26:31;;;;;;;18.70;8.90;;;;;;;14.83;73.62;99010.36;103089;1298;95130;-73
2022/10/24 08:29:00;;;;;;;20.00;9.30;;;;;;;14.80;73.49;98999.67;103089;1288;107492;-72
2022/10/24 08:31:28;;;;;;;17.30;8.80;;;;;;;14.79;73.53;98987.48;103076;1299;97932;-73
2022/10/24 08:33:56;;;;;;;19.50;9.50;;;;;;;14.79;73.41;98989.97;103070;1290;98463;-74
2022/10/24 08:36:30;;;;;;;19.20;8.80;;;;;;;14.79;73.45;98999.62;103025;1297;111052;-74
2022/10/24 08:39:00;;;;;;;19.00;9.40;;;;;;;14.88;73.37;98998.23;102877;1299;97007;-75
2022/10/24 08:41:39;;;;;;;17.10;8.40;;;;;;;15.03;73.46;98997.83;103073;1297;108003;-76
2022/10/24 08:44:29;;;;;;;19.90;8.40;;;;;;;15.29;73.25;98997.52;103032;1302;97894;-73
2022/10/24 08:47:08;;;;;;;18.40;8.70;;;;;;;15.57;73.16;98997.61;103172;1297;97978;-72
2022/10/24 08:49:46;;;;;;;16.40;7.90;;;;;;;15.86;72.94;98996.82;103016;1297;111274;-72
2022/10/24 08:52:35;;;;;;;16.60;7.10;;;;;;;16.07;72.88;98996.98;102939;1297;97864;-74
2022/10/24 08:55:13;;;;;;;19.30;7.60;;;;;;;16.19;72.85;98995.11;103012;1300;107448;-74
2022/10/24 08:58:01;;;;;;;16.40;7.80;;;;;;;16.34;72.22;98994.79;103025;1297;97904;-73
2022/10/24 09:00:38;;;;;;;15.40;6.90;;;;;;;16.41;72.38;99005.77;103040;1297;97990;-73
2022/10/24 09:03:29;;;;;;;18.20;8.10;;;;;;;16.47;72.43;99005.64;102973;1299;111173;-74
2022/10/24 09:06:25;;;;;;;24.40;8.40;;;;;;;16.67;72.57;99003.36;103029;1296;97986;-75
2022/10/24 09:09:03;;;;;;;16.70;7.80;;;;;;;16.90;72.50;99006.84;102975;1300;108762;-73
2022/10/24 09:12:00;;;;;;;17.20;7.30;;;;;;;17.02;71.99;99003.66;103059;1297;97405;-78
2022/10/24 09:14:35;;;;;;;15.90;7.80;;;;;;;17.08;71.79;99003.10;103115;1297;97765;-74
2022/10/24 09:17:42;;;;;;;17.50;7.10;;;;;;;17.05;71.82;99004.77;102992;1303;110761;-74
2022/10/24 09:20:24;;;;;;;13.60;6.50;;;;;;;17.06;71.47;98994.73;102268;1311;97966;-74
2022/10/24 09:22:56;;;;;;;14.70;7.20;;;;;;;17.17;71.36;98986.90;102218;1305;106212;-75
2022/10/24 09:25:31;;;;;;;17.90;7.20;;;;;;;17.36;71.87;98984.10;102806;1297;97944;-72
2022/10/24 09:28:05;;;;;;;16.90;7.10;;;;;;;17.45;71.60;98990.73;103072;1297;97997;-73
2022/10/24 09:30:36;;;;;;;16.40;6.80;;;;;;;17.50;71.64;98986.63;103034;1296;111189;-76
2022/10/24 09:33:22;;;;;;;13.60;6.60;;;;;;;17.58;71.14;98985.16;103050;1302;98366;-75
2022/10/24 09:35:53;;;;;;;12.80;6.20;;;;;;;17.57;71.00;98985.23;103007;1304;107505;-75
2022/10/24 09:38:32;;;;;;;14.10;6.80;;;;;;;17.63;71.16;98983.73;103068;1297;98436;-76
2022/10/24 09:41:17;;;;;;;16.80;6.70;;;;;;;17.62;70.74;98991.14;103075;1296;98015;-74
2022/10/24 09:44:00;;;;;;;17.60;6.50;;;;;;;17.60;70.59;98994.65;103000;1303;111136;-76
2022/10/24 09:46:40;;;;;;;13.80;6.30;;;;;;;17.63;70.59;98985.83;103097;1303;96958;-78
2022/10/24 09:49:13;;;;;;;16.00;6.40;;;;;;;17.78;70.98;98974.61;103025;1304;107469;-73
2022/10/24 09:51:47;;;;;;;13.90;6.50;;;;;;;17.93;70.11;98970.77;102999;1297;98518;-74
2022/10/24 09:54:27;;;;;;;13.90;7.00;;;;;;;17.98;69.94;98965.22;103043;1297;98487;-74
2022/10/24 09:57:11;;;;;;;13.40;6.00;;;;;;;18.03;69.95;98967.22;102990;1297;111090;-76
2022/10/24 09:59:47;;;;;;;12.70;6.20;;;;;;;18.02;69.62;98961.96;103083;1298;97988;-75
2022/10/24 10:02:35;;;;;;;17.10;6.70;;;;;;;17.99;69.36;98961.00;103077;1301;107435;-74
2022/10/24 10:05:04;;;;;;;16.20;6.60;;;;;;;17.94;69.27;98960.73;103045;1304;97991;-73
2022/10/24 10:07:47;;;;;;;16.50;6.20;;;;;;;17.88;68.95;98962.83;103055;1290;96562;-72
2022/10/24 10:10:17;;;;;;;17.20;6.80;;;;;;;17.85;69.15;98962.40;103108;1297;111142;-72
2022/10/24 10:12:55;;;;;;;14.90;6.10;;;;;;;17.88;68.98;98960.30;103091;1297;98006;-72
2022/10/24 10:15:30;;;;;;;14.80;6.10;;;;;;;17.88;68.83;98949.77;103088;1297;107241;-73
2022/10/24 10:18:22;;;;;;;15.00;7.10;;;;;;;17.81;68.74;98944.70;103099;1298;98130;-74
2022/10/24 10:21:23;;;;;;;11.40;5.90;;;;;;;17.83;68.80;98952.56;103065;1297;95947;-73
2022/10/24 10:23:55;;;;;;;13.80;6.30;;;;;;;17.95;68.92;98961.61;103090;1290;111185;-74
2022/10/24 10:26:41;;;;;;;14.50;6.90;;;;;;;18.03;68.64;98964.22;103096;1297;97527;-71
2022/10/24 10:29:17;;;;;;;15.90;6.90;;;;;;;18.03;68.13;98964.15;103050;1298;107597;-72
2022/10/24 10:31:57;;;;;;;17.30;6.90;;;;;;;18.05;68.31;98961.24;103069;1297;97999;-72
2022/10/24 10:34:47;;;;;;;13.30;6.30;;;;;;;18.10;68.32;98949.28;103050;1297;97871;-72
2022/10/24 10:37:47;;;;;;;15.70;6.70;;;;;;;18.20;68.28;98938.10;102996;1297;110920;-73
2022/10/24 10:40:20;;;;;;;13.70;5.80;;;;;;;18.40;68.23;98932.59;103118;1304;97951;-72
2022/10/24 10:43:17;;;;;;;14.50;6.20;;;;;;;18.53;67.94;98938.44;103090;1299;107765;-74
2022/10/24 10:46:11;;;;;;;14.00;6.40;;;;;;;18.65;67.96;98936.36;103058;1303;97385;-73
2022/10/24 10:48:47;;;;;;;15.40;6.70;;;;;;;18.71;67.54;98946.14;103058;1296;95214;-73
2022/10/24 10:51:34;;;;;;;12.80;5.60;;;;;;;18.81;67.18;98950.48;103093;1303;110723;-74
2022/10/24 10:54:43;;;;;;;17.90;6.80;;;;;;;18.84;67.44;98951.05;103081;1297;95647;-75
2022/10/24 10:57:17;;;;;;;13.60;6.10;;;;;;;18.88;67.48;98948.46;103041;1303;107550;-72
2022/10/24 11:00:00;;;;;;;15.40;6.70;;;;;;;18.94;67.35;98946.05;103093;1296;97910;-72
2022/10/24 11:02:50;;;;;;;13.10;6.50;;;;;;;19.01;67.08;98946.02;103089;1290;97895;-73
2022/10/24 11:05:48;;;;;;;14.60;6.50;;;;;;;19.08;66.98;98948.52;102957;1301;110519;-73
2022/10/24 11:08:24;;;;;;;15.40;7.00;;;;;;;19.08;66.41;98951.05;103122;1290;95229;-73
2022/10/24 11:11:13;;;;;;;14.40;6.50;;;;;;;19.14;66.62;98959.00;103022;1297;107200;-72
2022/10/24 11:14:03;;;;;;;12.60;6.20;;;;;;;19.27;66.51;98963.66;103027;1297;97965;-69
2022/10/24 11:16:35;;;;;;;15.20;6.50;;;;;;;19.34;66.43;98965.02;103135;1298;98558;-72
2022/10/24 11:19:20;;;;;;;12.70;5.90;;;;;;;19.31;65.93;98954.94;103094;1298;111258;-72
2022/10/24 11:21:50;;;;;;;17.00;6.90;;;;;;;19.22;65.90;98942.23;103080;1288;97793;-73
2022/10/24 11:24:22;;;;;;;15.70;6.00;;;;;;;19.14;65.83;98933.95;103102;1300;107603;-72
2022/10/24 11:27:08;;;;;;;16.20;6.80;;;;;;;19.01;65.52;98944.08;103084;1299;98557;-71
2022/10/24 11:29:46;;;;;;;16.30;7.00;;;;;;;18.77;65.19;98951.83;103074;1304;95145;-72
2022/10/24 11:32:19;;;;;;;16.70;6.50;;;;;;;18.54;65.27;98955.02;103126;1300;110769;-71
2022/10/24 11:34:56;;;;;;;17.90;6.60;;;;;;;18.40;65.44;98954.13;103104;1301;97864;-74
2022/10/24 11:37:34;;;;;;;14.20;6.60;;;;;;;18.34;65.57;98952.67;103093;1304;106491;-72
2022/10/24 11:40:11;;;;;;;15.90;7.10;;;;;;;18.25;64.96;98947.70;103076;1303;98060;-71